sensor_id;sensor_type;location;lat;lon;timestamp;temperature;humidity
4687;DHT22;2357;47.316;-1.348;2022-08-05T00:01:16;21.30;99.90
4687;DHT22;2357;47.316;-1.348;2022-08-05T00:03:42;21.30;99.90
4687;DHT22;2357;47.316;-1.348;2022-08-05T00:06:08;21.20;99.90
4687;DHT22;2357;47.316;-1.348;2022-08-05T00:08:35;21.20;99.90
4687;DHT22;2357;47.316;-1.348;2022-08-05T00:11:04;21.20;99.90
4687;DHT22;2357;47.316;-1.348;2022-08-05T00:13:34;21.20;99.90
4687;DHT22;2357;47.316;-1.348;2022-08-05T00:16:00;21.10;99.90
4687;DHT22;2357;47.316;-1.348;2022-08-05T00:18:26;21.10;99.90
4687;DHT22;2357;47.316;-1.348;2022-08-05T00:20:52;21.20;99.90
4687;DHT22;2357;47.316;-1.348;2022-08-05T00:23:18;21.00;99.90
4687;DHT22;2357;47.316;-1.348;2022-08-05T00:25:44;21.00;99.90
4687;DHT22;2357;47.316;-1.348;2022-08-05T00:28:09;21.10;99.90
4687;DHT22;2357;47.316;-1.348;2022-08-05T00:30:35;21.10;99.90
4687;DHT22;2357;47.316;-1.348;2022-08-05T00:33:01;21.00;99.90
4687;DHT22;2357;47.316;-1.348;2022-08-05T00:35:26;20.80;99.90
4687;DHT22;2357;47.316;-1.348;2022-08-05T00:37:52;20.80;99.90
4687;DHT22;2357;47.316;-1.348;2022-08-05T00:40:19;20.80;99.90
4687;DHT22;2357;47.316;-1.348;2022-08-05T00:42:45;20.90;99.90
4687;DHT22;2357;47.316;-1.348;2022-08-05T00:45:11;20.80;99.90
4687;DHT22;2357;47.316;-1.348;2022-08-05T00:47:37;20.80;99.90
4687;DHT22;2357;47.316;-1.348;2022-08-05T00:50:03;20.60;99.90
4687;DHT22;2357;47.316;-1.348;2022-08-05T00:52:28;20.70;99.90
4687;DHT22;2357;47.316;-1.348;2022-08-05T00:54:55;20.70;99.90
4687;DHT22;2357;47.316;-1.348;2022-08-05T00:57:21;20.70;99.90
4687;DHT22;2357;47.316;-1.348;2022-08-05T00:59:47;20.70;99.90
4687;DHT22;2357;47.316;-1.348;2022-08-05T01:02:13;20.70;99.90
4687;DHT22;2357;47.316;-1.348;2022-08-05T01:04:38;20.60;99.90
4687;DHT22;2357;47.316;-1.348;2022-08-05T01:07:04;20.50;99.90
4687;DHT22;2357;47.316;-1.348;2022-08-05T01:09:30;20.40;99.90
4687;DHT22;2357;47.316;-1.348;2022-08-05T01:12:05;20.40;99.90
4687;DHT22;2357;47.316;-1.348;2022-08-05T01:15:23;20.50;99.90
4687;DHT22;2357;47.316;-1.348;2022-08-05T01:17:52;20.40;99.90
4687;DHT22;2357;47.316;-1.348;2022-08-05T01:20:28;20.50;99.90
4687;DHT22;2357;47.316;-1.348;2022-08-05T01:31:54;20.40;99.90
4687;DHT22;2357;47.316;-1.348;2022-08-05T01:34:21;20.40;99.90
4687;DHT22;2357;47.316;-1.348;2022-08-05T01:37:16;20.30;99.90
4687;DHT22;2357;47.316;-1.348;2022-08-05T01:39:45;20.40;99.90
4687;DHT22;2357;47.316;-1.348;2022-08-05T01:42:18;20.30;99.90
4687;DHT22;2357;47.316;-1.348;2022-08-05T01:44:45;20.30;99.90
4687;DHT22;2357;47.316;-1.348;2022-08-05T01:47:14;20.20;99.90
4687;DHT22;2357;47.316;-1.348;2022-08-05T01:49:42;20.00;99.90
4687;DHT22;2357;47.316;-1.348;2022-08-05T01:52:08;20.00;99.90
4687;DHT22;2357;47.316;-1.348;2022-08-05T01:54:42;20.00;99.90
4687;DHT22;2357;47.316;-1.348;2022-08-05T01:57:10;20.10;99.90
4687;DHT22;2357;47.316;-1.348;2022-08-05T01:59:38;20.00;99.90
4687;DHT22;2357;47.316;-1.348;2022-08-05T02:02:05;20.10;99.90
4687;DHT22;2357;47.316;-1.348;2022-08-05T02:04:34;19.90;99.90
4687;DHT22;2357;47.316;-1.348;2022-08-05T02:07:01;19.90;99.90
4687;DHT22;2357;47.316;-1.348;2022-08-05T02:09:27;19.90;99.90
4687;DHT22;2357;47.316;-1.348;2022-08-05T02:12:19;19.90;99.90
4687;DHT22;2357;47.316;-1.348;2022-08-05T02:14:51;19.90;99.90
4687;DHT22;2357;47.316;-1.348;2022-08-05T02:17:28;19.90;99.90
4687;DHT22;2357;47.316;-1.348;2022-08-05T02:19:59;19.80;99.90
4687;DHT22;2357;47.316;-1.348;2022-08-05T02:22:44;19.80;99.90
4687;DHT22;2357;47.316;-1.348;2022-08-05T02:25:17;19.80;99.90
4687;DHT22;2357;47.316;-1.348;2022-08-05T02:27:44;19.80;99.90
4687;DHT22;2357;47.316;-1.348;2022-08-05T02:30:14;19.80;99.90
4687;DHT22;2357;47.316;-1.348;2022-08-05T02:32:42;19.80;99.90
4687;DHT22;2357;47.316;-1.348;2022-08-05T02:35:14;19.80;99.90
4687;DHT22;2357;47.316;-1.348;2022-08-05T02:37:41;19.70;99.90
4687;DHT22;2357;47.316;-1.348;2022-08-05T02:40:09;19.60;99.90
4687;DHT22;2357;47.316;-1.348;2022-08-05T02:42:35;19.50;99.90
4687;DHT22;2357;47.316;-1.348;2022-08-05T02:45:02;19.40;99.90
4687;DHT22;2357;47.316;-1.348;2022-08-05T02:47:30;19.40;99.90
4687;DHT22;2357;47.316;-1.348;2022-08-05T02:49:58;19.50;99.90
4687;DHT22;2357;47.316;-1.348;2022-08-05T02:52:23;19.40;99.90
4687;DHT22;2357;47.316;-1.348;2022-08-05T02:54:50;19.50;99.90
4687;DHT22;2357;47.316;-1.348;2022-08-05T02:57:17;19.50;99.90
4687;DHT22;2357;47.316;-1.348;2022-08-05T02:59:47;19.50;99.90
4687;DHT22;2357;47.316;-1.348;2022-08-05T03:02:18;19.60;99.90
4687;DHT22;2357;47.316;-1.348;2022-08-05T03:04:45;19.40;99.90
4687;DHT22;2357;47.316;-1.348;2022-08-05T03:07:12;19.30;99.90
4687;DHT22;2357;47.316;-1.348;2022-08-05T03:09:40;19.30;99.90
4687;DHT22;2357;47.316;-1.348;2022-08-05T03:12:06;19.20;99.90
4687;DHT22;2357;47.316;-1.348;2022-08-05T03:14:32;19.30;99.90
4687;DHT22;2357;47.316;-1.348;2022-08-05T03:16:59;19.20;99.90
4687;DHT22;2357;47.316;-1.348;2022-08-05T03:19:25;19.20;99.90
4687;DHT22;2357;47.316;-1.348;2022-08-05T03:21:50;19.00;99.90
4687;DHT22;2357;47.316;-1.348;2022-08-05T03:24:18;19.00;99.90
4687;DHT22;2357;47.316;-1.348;2022-08-05T03:26:44;19.00;99.90
4687;DHT22;2357;47.316;-1.348;2022-08-05T03:29:10;19.10;99.90
4687;DHT22;2357;47.316;-1.348;2022-08-05T03:31:36;18.90;99.90
4687;DHT22;2357;47.316;-1.348;2022-08-05T03:34:03;18.90;99.90
4687;DHT22;2357;47.316;-1.348;2022-08-05T03:36:30;18.90;99.90
4687;DHT22;2357;47.316;-1.348;2022-08-05T03:38:56;18.90;99.90
4687;DHT22;2357;47.316;-1.348;2022-08-05T03:41:21;19.00;99.90
4687;DHT22;2357;47.316;-1.348;2022-08-05T03:43:47;19.00;99.90
4687;DHT22;2357;47.316;-1.348;2022-08-05T03:46:13;19.00;99.90
4687;DHT22;2357;47.316;-1.348;2022-08-05T03:48:38;19.10;99.90
4687;DHT22;2357;47.316;-1.348;2022-08-05T03:51:49;19.00;99.90
4687;DHT22;2357;47.316;-1.348;2022-08-05T03:56:42;18.90;99.90
4687;DHT22;2357;47.316;-1.348;2022-08-05T03:59:12;18.80;99.90
4687;DHT22;2357;47.316;-1.348;2022-08-05T04:01:42;18.70;99.90
4687;DHT22;2357;47.316;-1.348;2022-08-05T04:04:09;18.80;99.90
4687;DHT22;2357;47.316;-1.348;2022-08-05T04:06:37;18.80;99.90
4687;DHT22;2357;47.316;-1.348;2022-08-05T04:09:03;18.80;99.90
4687;DHT22;2357;47.316;-1.348;2022-08-05T04:11:31;18.80;99.90
4687;DHT22;2357;47.316;-1.348;2022-08-05T04:13:58;18.70;99.90
4687;DHT22;2357;47.316;-1.348;2022-08-05T04:16:24;18.80;99.90
4687;DHT22;2357;47.316;-1.348;2022-08-05T04:18:50;18.80;99.90
4687;DHT22;2357;47.316;-1.348;2022-08-05T04:21:15;18.70;99.90
4687;DHT22;2357;47.316;-1.348;2022-08-05T04:23:41;18.50;99.90
4687;DHT22;2357;47.316;-1.348;2022-08-05T04:26:07;18.60;99.90
4687;DHT22;2357;47.316;-1.348;2022-08-05T04:28:33;18.60;99.90
4687;DHT22;2357;47.316;-1.348;2022-08-05T04:30:59;18.60;99.90
4687;DHT22;2357;47.316;-1.348;2022-08-05T04:33:25;18.60;99.90
4687;DHT22;2357;47.316;-1.348;2022-08-05T04:35:51;18.50;99.90
4687;DHT22;2357;47.316;-1.348;2022-08-05T04:38:17;18.50;99.90
4687;DHT22;2357;47.316;-1.348;2022-08-05T04:40:43;18.50;99.90
4687;DHT22;2357;47.316;-1.348;2022-08-05T04:43:08;18.50;99.90
4687;DHT22;2357;47.316;-1.348;2022-08-05T04:45:34;18.50;99.90
4687;DHT22;2357;47.316;-1.348;2022-08-05T04:48:04;18.40;99.90
4687;DHT22;2357;47.316;-1.348;2022-08-05T04:50:31;18.40;99.90
4687;DHT22;2357;47.316;-1.348;2022-08-05T04:52:56;18.50;99.90
4687;DHT22;2357;47.316;-1.348;2022-08-05T04:55:22;18.40;99.90
4687;DHT22;2357;47.316;-1.348;2022-08-05T04:57:47;18.30;99.90
4687;DHT22;2357;47.316;-1.348;2022-08-05T05:00:13;18.30;99.90
4687;DHT22;2357;47.316;-1.348;2022-08-05T05:02:39;18.30;99.90
4687;DHT22;2357;47.316;-1.348;2022-08-05T05:05:05;18.30;99.90
4687;DHT22;2357;47.316;-1.348;2022-08-05T05:07:31;18.30;99.90
4687;DHT22;2357;47.316;-1.348;2022-08-05T05:09:56;18.20;99.90
4687;DHT22;2357;47.316;-1.348;2022-08-05T05:12:22;18.20;99.90
4687;DHT22;2357;47.316;-1.348;2022-08-05T05:14:48;18.20;99.90
4687;DHT22;2357;47.316;-1.348;2022-08-05T05:17:14;18.20;99.90
4687;DHT22;2357;47.316;-1.348;2022-08-05T05:19:40;18.20;99.90
4687;DHT22;2357;47.316;-1.348;2022-08-05T05:22:06;18.30;99.90
4687;DHT22;2357;47.316;-1.348;2022-08-05T05:24:32;18.20;99.90
4687;DHT22;2357;47.316;-1.348;2022-08-05T05:26:57;18.30;99.90
4687;DHT22;2357;47.316;-1.348;2022-08-05T05:29:23;18.30;99.90
4687;DHT22;2357;47.316;-1.348;2022-08-05T05:31:48;18.20;99.90
4687;DHT22;2357;47.316;-1.348;2022-08-05T05:34:14;18.20;99.90
4687;DHT22;2357;47.316;-1.348;2022-08-05T05:36:40;18.20;99.90
4687;DHT22;2357;47.316;-1.348;2022-08-05T05:39:05;18.20;99.90
4687;DHT22;2357;47.316;-1.348;2022-08-05T05:41:31;18.20;99.90
4687;DHT22;2357;47.316;-1.348;2022-08-05T05:43:57;18.20;99.90
4687;DHT22;2357;47.316;-1.348;2022-08-05T05:46:23;18.30;99.90
4687;DHT22;2357;47.316;-1.348;2022-08-05T05:48:48;18.30;99.90
4687;DHT22;2357;47.316;-1.348;2022-08-05T05:51:22;18.30;99.90
4687;DHT22;2357;47.316;-1.348;2022-08-05T05:53:49;18.30;99.90
4687;DHT22;2357;47.316;-1.348;2022-08-05T05:56:14;18.30;99.90
4687;DHT22;2357;47.316;-1.348;2022-08-05T05:58:40;18.30;99.90
4687;DHT22;2357;47.316;-1.348;2022-08-05T06:01:06;18.40;99.90
4687;DHT22;2357;47.316;-1.348;2022-08-05T06:03:31;18.30;99.90
4687;DHT22;2357;47.316;-1.348;2022-08-05T06:05:57;18.30;99.90
4687;DHT22;2357;47.316;-1.348;2022-08-05T06:08:22;18.40;99.90
4687;DHT22;2357;47.316;-1.348;2022-08-05T06:10:48;18.40;99.90
4687;DHT22;2357;47.316;-1.348;2022-08-05T06:13:14;18.50;99.90
4687;DHT22;2357;47.316;-1.348;2022-08-05T06:15:39;18.50;99.90
4687;DHT22;2357;47.316;-1.348;2022-08-05T06:18:05;18.50;99.90
4687;DHT22;2357;47.316;-1.348;2022-08-05T06:20:31;18.40;99.90
4687;DHT22;2357;47.316;-1.348;2022-08-05T06:22:57;18.40;99.90
4687;DHT22;2357;47.316;-1.348;2022-08-05T06:25:23;18.50;99.90
4687;DHT22;2357;47.316;-1.348;2022-08-05T06:27:48;18.50;99.90
4687;DHT22;2357;47.316;-1.348;2022-08-05T06:30:14;18.50;99.90
4687;DHT22;2357;47.316;-1.348;2022-08-05T06:32:42;18.60;99.90
4687;DHT22;2357;47.316;-1.348;2022-08-05T06:35:08;18.50;99.90
4687;DHT22;2357;47.316;-1.348;2022-08-05T06:37:34;18.60;99.90
4687;DHT22;2357;47.316;-1.348;2022-08-05T06:39:59;18.60;99.90
4687;DHT22;2357;47.316;-1.348;2022-08-05T06:42:25;18.70;99.90
4687;DHT22;2357;47.316;-1.348;2022-08-05T06:44:51;18.70;99.90
4687;DHT22;2357;47.316;-1.348;2022-08-05T06:47:16;18.50;99.90
4687;DHT22;2357;47.316;-1.348;2022-08-05T06:49:42;18.60;99.90
4687;DHT22;2357;47.316;-1.348;2022-08-05T06:52:08;18.70;99.90
4687;DHT22;2357;47.316;-1.348;2022-08-05T06:54:33;18.70;99.90
4687;DHT22;2357;47.316;-1.348;2022-08-05T06:56:59;18.70;99.90
4687;DHT22;2357;47.316;-1.348;2022-08-05T06:59:25;18.80;99.90
4687;DHT22;2357;47.316;-1.348;2022-08-05T07:01:50;18.90;99.90
4687;DHT22;2357;47.316;-1.348;2022-08-05T07:04:16;18.90;99.90
4687;DHT22;2357;47.316;-1.348;2022-08-05T07:06:42;18.90;99.90
4687;DHT22;2357;47.316;-1.348;2022-08-05T07:09:07;19.00;99.90
4687;DHT22;2357;47.316;-1.348;2022-08-05T07:11:33;19.10;99.90
4687;DHT22;2357;47.316;-1.348;2022-08-05T07:13:59;19.10;99.90
4687;DHT22;2357;47.316;-1.348;2022-08-05T07:16:43;19.20;99.90
4687;DHT22;2357;47.316;-1.348;2022-08-05T07:19:15;19.20;99.90
4687;DHT22;2357;47.316;-1.348;2022-08-05T07:21:43;19.30;99.90
4687;DHT22;2357;47.316;-1.348;2022-08-05T07:24:08;19.40;99.90
4687;DHT22;2357;47.316;-1.348;2022-08-05T07:26:34;19.40;99.90
4687;DHT22;2357;47.316;-1.348;2022-08-05T07:28:59;19.40;99.90
4687;DHT22;2357;47.316;-1.348;2022-08-05T07:31:25;19.50;99.90
4687;DHT22;2357;47.316;-1.348;2022-08-05T07:33:50;19.50;99.90
4687;DHT22;2357;47.316;-1.348;2022-08-05T07:36:16;19.50;99.90
4687;DHT22;2357;47.316;-1.348;2022-08-05T07:38:42;19.60;99.90
4687;DHT22;2357;47.316;-1.348;2022-08-05T07:41:09;19.60;99.90
4687;DHT22;2357;47.316;-1.348;2022-08-05T07:43:35;19.70;99.90
4687;DHT22;2357;47.316;-1.348;2022-08-05T07:46:01;19.70;99.90
4687;DHT22;2357;47.316;-1.348;2022-08-05T07:48:27;19.80;99.90
4687;DHT22;2357;47.316;-1.348;2022-08-05T07:50:52;19.80;99.90
4687;DHT22;2357;47.316;-1.348;2022-08-05T07:53:18;19.90;99.90
4687;DHT22;2357;47.316;-1.348;2022-08-05T07:55:44;19.90;99.90
4687;DHT22;2357;47.316;-1.348;2022-08-05T07:58:09;20.00;99.90
4687;DHT22;2357;47.316;-1.348;2022-08-05T08:00:35;20.10;99.90
4687;DHT22;2357;47.316;-1.348;2022-08-05T08:03:01;20.20;99.90
4687;DHT22;2357;47.316;-1.348;2022-08-05T08:05:27;20.20;99.90
4687;DHT22;2357;47.316;-1.348;2022-08-05T08:07:53;20.30;99.90
4687;DHT22;2357;47.316;-1.348;2022-08-05T08:10:22;20.40;99.90
4687;DHT22;2357;47.316;-1.348;2022-08-05T08:12:48;20.50;99.90
4687;DHT22;2357;47.316;-1.348;2022-08-05T08:15:14;20.50;99.90
4687;DHT22;2357;47.316;-1.348;2022-08-05T08:17:40;20.50;99.90
4687;DHT22;2357;47.316;-1.348;2022-08-05T08:20:06;20.60;99.90
4687;DHT22;2357;47.316;-1.348;2022-08-05T08:22:32;20.70;99.90
4687;DHT22;2357;47.316;-1.348;2022-08-05T08:24:58;20.70;99.90
4687;DHT22;2357;47.316;-1.348;2022-08-05T08:27:23;20.80;99.90
4687;DHT22;2357;47.316;-1.348;2022-08-05T08:29:49;20.80;99.90
4687;DHT22;2357;47.316;-1.348;2022-08-05T08:32:14;20.80;99.90
4687;DHT22;2357;47.316;-1.348;2022-08-05T08:34:40;20.90;99.90
4687;DHT22;2357;47.316;-1.348;2022-08-05T08:37:06;21.00;99.90
4687;DHT22;2357;47.316;-1.348;2022-08-05T08:39:32;21.00;99.90
4687;DHT22;2357;47.316;-1.348;2022-08-05T08:42:00;21.20;99.90
4687;DHT22;2357;47.316;-1.348;2022-08-05T08:44:30;21.20;99.90
4687;DHT22;2357;47.316;-1.348;2022-08-05T08:46:56;21.20;99.90
4687;DHT22;2357;47.316;-1.348;2022-08-05T08:49:23;21.20;99.90
4687;DHT22;2357;47.316;-1.348;2022-08-05T08:51:57;21.20;99.90
4687;DHT22;2357;47.316;-1.348;2022-08-05T08:54:24;21.30;99.90
4687;DHT22;2357;47.316;-1.348;2022-08-05T08:56:50;21.40;99.90
4687;DHT22;2357;47.316;-1.348;2022-08-05T08:59:19;21.50;99.90
4687;DHT22;2357;47.316;-1.348;2022-08-05T09:01:45;21.60;99.90
4687;DHT22;2357;47.316;-1.348;2022-08-05T09:04:12;21.60;99.90
4687;DHT22;2357;47.316;-1.348;2022-08-05T09:06:37;21.70;99.90
4687;DHT22;2357;47.316;-1.348;2022-08-05T09:09:03;21.80;99.90
4687;DHT22;2357;47.316;-1.348;2022-08-05T09:11:31;21.90;99.90
4687;DHT22;2357;47.316;-1.348;2022-08-05T09:13:58;21.80;99.90
4687;DHT22;2357;47.316;-1.348;2022-08-05T09:16:25;21.80;99.90
4687;DHT22;2357;47.316;-1.348;2022-08-05T09:18:51;21.90;99.90
4687;DHT22;2357;47.316;-1.348;2022-08-05T09:21:17;21.90;99.90
4687;DHT22;2357;47.316;-1.348;2022-08-05T09:23:44;21.90;99.90
4687;DHT22;2357;47.316;-1.348;2022-08-05T09:26:12;22.00;99.90
4687;DHT22;2357;47.316;-1.348;2022-08-05T09:28:41;22.10;99.90
4687;DHT22;2357;47.316;-1.348;2022-08-05T09:31:12;22.20;99.90
4687;DHT22;2357;47.316;-1.348;2022-08-05T09:36:15;22.30;99.90
4687;DHT22;2357;47.316;-1.348;2022-08-05T09:38:58;22.40;99.90
4687;DHT22;2357;47.316;-1.348;2022-08-05T09:41:24;22.60;99.90
4687;DHT22;2357;47.316;-1.348;2022-08-05T09:43:50;22.70;99.90
4687;DHT22;2357;47.316;-1.348;2022-08-05T09:46:42;22.70;99.90
4687;DHT22;2357;47.316;-1.348;2022-08-05T09:49:21;22.90;99.90
4687;DHT22;2357;47.316;-1.348;2022-08-05T09:51:47;22.90;99.90
4687;DHT22;2357;47.316;-1.348;2022-08-05T09:54:13;22.70;99.90
4687;DHT22;2357;47.316;-1.348;2022-08-05T09:56:42;22.90;99.90
4687;DHT22;2357;47.316;-1.348;2022-08-05T09:59:12;22.90;99.90
4687;DHT22;2357;47.316;-1.348;2022-08-05T10:01:42;23.00;99.90
4687;DHT22;2357;47.316;-1.348;2022-08-05T10:04:11;23.00;99.90
4687;DHT22;2357;47.316;-1.348;2022-08-05T10:06:42;23.00;99.90
4687;DHT22;2357;47.316;-1.348;2022-08-05T10:09:18;23.20;99.90
4687;DHT22;2357;47.316;-1.348;2022-08-05T10:11:46;23.20;99.90
4687;DHT22;2357;47.316;-1.348;2022-08-05T10:14:24;23.30;99.90
4687;DHT22;2357;47.316;-1.348;2022-08-05T10:16:51;23.40;99.90
4687;DHT22;2357;47.316;-1.348;2022-08-05T10:19:17;23.60;99.90
4687;DHT22;2357;47.316;-1.348;2022-08-05T10:21:43;23.50;99.90
4687;DHT22;2357;47.316;-1.348;2022-08-05T10:24:10;23.60;99.90
4687;DHT22;2357;47.316;-1.348;2022-08-05T10:26:42;23.80;99.90
4687;DHT22;2357;47.316;-1.348;2022-08-05T10:29:08;23.80;99.90
4687;DHT22;2357;47.316;-1.348;2022-08-05T10:31:35;24.00;99.90
4687;DHT22;2357;47.316;-1.348;2022-08-05T10:34:01;24.20;99.90
4687;DHT22;2357;47.316;-1.348;2022-08-05T10:36:27;24.20;99.90
4687;DHT22;2357;47.316;-1.348;2022-08-05T10:39:03;24.30;99.90
4687;DHT22;2357;47.316;-1.348;2022-08-05T10:41:58;24.40;99.90
4687;DHT22;2357;47.316;-1.348;2022-08-05T10:44:22;24.20;99.90
4687;DHT22;2357;47.316;-1.348;2022-08-05T10:46:51;24.10;99.90
4687;DHT22;2357;47.316;-1.348;2022-08-05T10:49:18;24.30;99.90
4687;DHT22;2357;47.316;-1.348;2022-08-05T10:51:49;24.40;99.90
4687;DHT22;2357;47.316;-1.348;2022-08-05T10:54:16;24.50;99.90
4687;DHT22;2357;47.316;-1.348;2022-08-05T10:56:50;24.40;99.90
4687;DHT22;2357;47.316;-1.348;2022-08-05T10:59:34;24.40;99.90
4687;DHT22;2357;47.316;-1.348;2022-08-05T11:02:07;24.40;99.90
4687;DHT22;2357;47.316;-1.348;2022-08-05T11:04:47;24.70;99.90
4687;DHT22;2357;47.316;-1.348;2022-08-05T11:07:14;24.80;99.90
4687;DHT22;2357;47.316;-1.348;2022-08-05T11:09:52;24.90;99.90
4687;DHT22;2357;47.316;-1.348;2022-08-05T11:17:42;25.00;99.90
4687;DHT22;2357;47.316;-1.348;2022-08-05T11:20:38;25.00;99.90
4687;DHT22;2357;47.316;-1.348;2022-08-05T11:23:29;25.20;99.90
4687;DHT22;2357;47.316;-1.348;2022-08-05T11:26:08;24.90;99.90
4687;DHT22;2357;47.316;-1.348;2022-08-05T11:36:03;25.10;99.90
4687;DHT22;2357;47.316;-1.348;2022-08-05T11:41:07;25.80;99.90
4687;DHT22;2357;47.316;-1.348;2022-08-05T11:43:33;26.10;99.90
4687;DHT22;2357;47.316;-1.348;2022-08-05T11:46:00;26.30;99.90
4687;DHT22;2357;47.316;-1.348;2022-08-05T11:48:26;26.10;99.90
4687;DHT22;2357;47.316;-1.348;2022-08-05T11:50:53;26.00;99.90
4687;DHT22;2357;47.316;-1.348;2022-08-05T11:53:19;26.00;99.90
4687;DHT22;2357;47.316;-1.348;2022-08-05T11:55:59;26.20;99.90
4687;DHT22;2357;47.316;-1.348;2022-08-05T11:58:30;26.20;99.90
4687;DHT22;2357;47.316;-1.348;2022-08-05T12:01:08;26.40;99.90
4687;DHT22;2357;47.316;-1.348;2022-08-05T12:06:07;26.60;99.90
4687;DHT22;2357;47.316;-1.348;2022-08-05T12:08:38;26.60;99.90
4687;DHT22;2357;47.316;-1.348;2022-08-05T12:11:04;26.70;99.90
4687;DHT22;2357;47.316;-1.348;2022-08-05T12:13:32;26.70;99.90
4687;DHT22;2357;47.316;-1.348;2022-08-05T12:15:58;26.90;99.90
4687;DHT22;2357;47.316;-1.348;2022-08-05T12:18:34;27.00;99.90
4687;DHT22;2357;47.316;-1.348;2022-08-05T12:24:07;27.20;99.90
4687;DHT22;2357;47.316;-1.348;2022-08-05T12:26:35;27.40;99.90
4687;DHT22;2357;47.316;-1.348;2022-08-05T12:29:44;27.50;99.90
4687;DHT22;2357;47.316;-1.348;2022-08-05T12:31:59;27.60;99.90
4687;DHT22;2357;47.316;-1.348;2022-08-05T12:34:30;27.60;99.90
4687;DHT22;2357;47.316;-1.348;2022-08-05T12:36:58;27.50;99.90
4687;DHT22;2357;47.316;-1.348;2022-08-05T12:39:25;27.80;99.90
4687;DHT22;2357;47.316;-1.348;2022-08-05T12:41:57;27.90;99.90
4687;DHT22;2357;47.316;-1.348;2022-08-05T12:44:24;28.10;99.90
4687;DHT22;2357;47.316;-1.348;2022-08-05T12:46:52;28.30;99.90
4687;DHT22;2357;47.316;-1.348;2022-08-05T12:49:18;28.40;99.90
4687;DHT22;2357;47.316;-1.348;2022-08-05T12:51:58;28.50;99.90
4687;DHT22;2357;47.316;-1.348;2022-08-05T12:54:28;28.60;99.90
4687;DHT22;2357;47.316;-1.348;2022-08-05T12:57:02;28.50;99.90
4687;DHT22;2357;47.316;-1.348;2022-08-05T12:59:41;28.40;99.90
4687;DHT22;2357;47.316;-1.348;2022-08-05T13:02:08;28.60;99.90
4687;DHT22;2357;47.316;-1.348;2022-08-05T13:04:38;28.30;99.90
4687;DHT22;2357;47.316;-1.348;2022-08-05T13:07:07;28.60;99.90
4687;DHT22;2357;47.316;-1.348;2022-08-05T13:09:37;28.60;99.90
4687;DHT22;2357;47.316;-1.348;2022-08-05T13:12:12;28.60;99.90
4687;DHT22;2357;47.316;-1.348;2022-08-05T13:14:40;28.70;99.90
4687;DHT22;2357;47.316;-1.348;2022-08-05T13:17:08;28.80;99.90
4687;DHT22;2357;47.316;-1.348;2022-08-05T13:19:35;28.80;99.90
4687;DHT22;2357;47.316;-1.348;2022-08-05T13:22:01;29.40;99.90
4687;DHT22;2357;47.316;-1.348;2022-08-05T13:24:26;29.40;99.90
4687;DHT22;2357;47.316;-1.348;2022-08-05T13:26:52;29.50;99.90
4687;DHT22;2357;47.316;-1.348;2022-08-05T13:29:18;29.30;99.90
4687;DHT22;2357;47.316;-1.348;2022-08-05T13:31:46;29.40;99.90
4687;DHT22;2357;47.316;-1.348;2022-08-05T13:34:12;29.50;99.90
4687;DHT22;2357;47.316;-1.348;2022-08-05T13:36:38;29.50;99.90
4687;DHT22;2357;47.316;-1.348;2022-08-05T13:39:05;29.60;99.90
4687;DHT22;2357;47.316;-1.348;2022-08-05T13:41:31;29.80;99.90
4687;DHT22;2357;47.316;-1.348;2022-08-05T13:43:57;30.00;99.90
4687;DHT22;2357;47.316;-1.348;2022-08-05T13:46:24;29.80;99.90
4687;DHT22;2357;47.316;-1.348;2022-08-05T13:48:50;29.80;99.90
4687;DHT22;2357;47.316;-1.348;2022-08-05T13:51:28;29.90;99.90
4687;DHT22;2357;47.316;-1.348;2022-08-05T13:53:54;29.90;99.90
4687;DHT22;2357;47.316;-1.348;2022-08-05T13:56:20;29.90;99.90
4687;DHT22;2357;47.316;-1.348;2022-08-05T13:58:46;29.80;99.90
4687;DHT22;2357;47.316;-1.348;2022-08-05T14:01:11;30.10;99.90
4687;DHT22;2357;47.316;-1.348;2022-08-05T14:03:37;30.10;99.90
4687;DHT22;2357;47.316;-1.348;2022-08-05T14:06:02;30.00;99.90
4687;DHT22;2357;47.316;-1.348;2022-08-05T14:08:28;30.10;99.90
4687;DHT22;2357;47.316;-1.348;2022-08-05T14:10:54;30.20;99.90
4687;DHT22;2357;47.316;-1.348;2022-08-05T14:13:20;30.30;99.90
4687;DHT22;2357;47.316;-1.348;2022-08-05T14:15:45;30.40;99.90
4687;DHT22;2357;47.316;-1.348;2022-08-05T14:18:12;30.50;99.90
4687;DHT22;2357;47.316;-1.348;2022-08-05T14:20:37;30.20;99.90
4687;DHT22;2357;47.316;-1.348;2022-08-05T14:23:03;30.30;99.90
4687;DHT22;2357;47.316;-1.348;2022-08-05T14:25:29;30.50;99.90
4687;DHT22;2357;47.316;-1.348;2022-08-05T14:27:54;30.50;99.90
4687;DHT22;2357;47.316;-1.348;2022-08-05T14:30:20;30.60;99.90
4687;DHT22;2357;47.316;-1.348;2022-08-05T14:32:46;30.40;99.90
4687;DHT22;2357;47.316;-1.348;2022-08-05T14:35:13;30.60;99.90
4687;DHT22;2357;47.316;-1.348;2022-08-05T14:37:38;30.70;99.90
4687;DHT22;2357;47.316;-1.348;2022-08-05T14:40:05;30.60;99.90
4687;DHT22;2357;47.316;-1.348;2022-08-05T14:42:30;30.70;99.90
4687;DHT22;2357;47.316;-1.348;2022-08-05T14:44:56;30.80;99.90
4687;DHT22;2357;47.316;-1.348;2022-08-05T14:47:22;30.60;99.90
4687;DHT22;2357;47.316;-1.348;2022-08-05T14:49:48;30.70;99.90
4687;DHT22;2357;47.316;-1.348;2022-08-05T14:52:14;30.80;99.90
4687;DHT22;2357;47.316;-1.348;2022-08-05T14:54:40;30.80;99.90
4687;DHT22;2357;47.316;-1.348;2022-08-05T14:57:05;30.90;99.90
4687;DHT22;2357;47.316;-1.348;2022-08-05T14:59:31;31.00;99.90
4687;DHT22;2357;47.316;-1.348;2022-08-05T15:01:57;31.10;99.90
4687;DHT22;2357;47.316;-1.348;2022-08-05T15:04:23;31.00;99.90
4687;DHT22;2357;47.316;-1.348;2022-08-05T15:06:49;30.90;99.90
4687;DHT22;2357;47.316;-1.348;2022-08-05T15:09:16;30.80;99.90
4687;DHT22;2357;47.316;-1.348;2022-08-05T15:11:42;30.90;99.90
4687;DHT22;2357;47.316;-1.348;2022-08-05T15:14:07;30.90;99.90
4687;DHT22;2357;47.316;-1.348;2022-08-05T15:16:33;30.80;99.90
4687;DHT22;2357;47.316;-1.348;2022-08-05T15:18:58;30.80;99.90
4687;DHT22;2357;47.316;-1.348;2022-08-05T15:21:24;30.50;99.90
4687;DHT22;2357;47.316;-1.348;2022-08-05T15:23:50;30.60;99.90
4687;DHT22;2357;47.316;-1.348;2022-08-05T15:26:15;30.50;99.90
4687;DHT22;2357;47.316;-1.348;2022-08-05T15:28:42;30.70;99.90
4687;DHT22;2357;47.316;-1.348;2022-08-05T15:31:08;30.70;99.90
4687;DHT22;2357;47.316;-1.348;2022-08-05T15:33:34;30.60;99.90
4687;DHT22;2357;47.316;-1.348;2022-08-05T15:36:03;30.70;99.90
4687;DHT22;2357;47.316;-1.348;2022-08-05T15:38:30;30.80;99.90
4687;DHT22;2357;47.316;-1.348;2022-08-05T15:40:56;30.90;99.90
4687;DHT22;2357;47.316;-1.348;2022-08-05T15:43:21;30.90;99.90
4687;DHT22;2357;47.316;-1.348;2022-08-05T15:45:47;31.10;99.90
4687;DHT22;2357;47.316;-1.348;2022-08-05T15:48:13;30.90;99.90
4687;DHT22;2357;47.316;-1.348;2022-08-05T15:50:39;31.00;99.90
4687;DHT22;2357;47.316;-1.348;2022-08-05T15:53:05;30.90;99.90
4687;DHT22;2357;47.316;-1.348;2022-08-05T15:55:31;30.80;99.90
4687;DHT22;2357;47.316;-1.348;2022-08-05T15:57:56;30.80;99.90
4687;DHT22;2357;47.316;-1.348;2022-08-05T16:00:22;30.90;99.90
4687;DHT22;2357;47.316;-1.348;2022-08-05T16:02:47;30.60;99.90
4687;DHT22;2357;47.316;-1.348;2022-08-05T16:05:13;30.80;99.90
4687;DHT22;2357;47.316;-1.348;2022-08-05T16:07:39;30.80;99.90
4687;DHT22;2357;47.316;-1.348;2022-08-05T16:10:05;30.60;99.90
4687;DHT22;2357;47.316;-1.348;2022-08-05T16:12:31;30.60;99.90
4687;DHT22;2357;47.316;-1.348;2022-08-05T16:14:56;30.70;99.90
4687;DHT22;2357;47.316;-1.348;2022-08-05T16:17:22;30.50;99.90
4687;DHT22;2357;47.316;-1.348;2022-08-05T16:19:48;30.60;99.90
4687;DHT22;2357;47.316;-1.348;2022-08-05T16:22:14;30.70;99.90
4687;DHT22;2357;47.316;-1.348;2022-08-05T16:24:40;30.70;99.90